La Cumbre, Argentina
Current Conditions -  °F | °C
As of 7:00 PM on Monday 26 Jan 2015 (Local Time) from SAOC Reporting Station
Thunderstorm Thunderstorm  
Wind Chill: 73°   Ceiling: 3500
Heat Index: 73°   Visibility: 6mi
Dew Point: 70°   Wind: 16mph
Humidity: 88%   Direction: 320°NW
Pressure: 29.71"   Gusts: NA
Location:  33.73°S, 64.17°W
Report Text: SAOC 262200Z 32014KT 9999 TS FEW025 BKN035SCT040CB 23/21 Q1006
Loading
Personal Weather Stations






























Interactive Weather Map New forecast layout! Learn more

10-Day Weather Forecast

Advertisements
Track Severe Weather on mobile